Terminal Aerodrome Forecast
Issued by NWS Cleveland, OH

Home | Current Version | Previous Version | Text Only | Print | Product List | Glossary Off
Versions: 1 2 3 4 5 6 7 8 9 10 11 12 13 14 15

479
FTUS41 KCLE 241720
TAFYNG
TAF
KYNG 241720Z 2418/2518 22015G25KT P6SM SCT045 BKN200
     FM250000 19012KT P6SM SCT045 BKN200
     FM250500 19014KT P6SM -SHRA VCTS SCT045CB BKN150
      TEMPO 2507/2510 26020G40KT 3SM TSRA BKN020CB
     FM251200 23012KT P6SM OVC025
     FM251400 24015G25KT P6SM OVC025=

USA.gov is the U.S. government's official web portal to all federal, state and local government web resources and services.